createdAt,value
2018-11-22T00:00:24.098Z,22.30
2018-11-22T00:03:10.873Z,19.37
2018-11-22T00:05:38.270Z,27.40
2018-11-22T00:08:25.618Z,19.30
2018-11-22T00:11:12.656Z,24.33
2018-11-22T00:13:40.140Z,20.97
2018-11-22T00:16:27.054Z,25.40
2018-11-22T00:19:14.206Z,22.30
2018-11-22T00:22:00.993Z,19.33
2018-11-22T00:24:28.389Z,19.70
2018-11-22T00:26:55.988Z,21.30
2018-11-22T00:29:43.029Z,24.57
2018-11-22T00:32:29.903Z,20.17
2018-11-22T00:35:17.711Z,22.47
2018-11-22T00:37:46.745Z,22.90
2018-11-22T00:40:33.616Z,25.17
2018-11-22T00:43:22.493Z,24.67
2018-11-22T00:46:09.534Z,22.30
2018-11-22T00:48:56.506Z,25.40
2018-11-22T00:51:43.539Z,24.70
2018-11-22T00:54:30.402Z,22.07
2018-11-22T00:57:17.373Z,23.10
2018-11-22T01:00:04.221Z,21.37
2018-11-22T01:02:51.027Z,22.40
2018-11-22T01:05:37.828Z,21.33
2018-11-22T01:08:24.653Z,24.77
2018-11-22T01:10:52.176Z,22.50
2018-11-22T01:13:39.035Z,20.40
2018-11-22T01:16:25.903Z,20.60
2018-11-22T01:19:12.681Z,27.83
2018-11-22T01:21:40.320Z,20.40
2018-11-22T01:24:27.160Z,25.17
2018-11-22T01:27:13.970Z,22.43
2018-11-22T01:30:00.921Z,22.57
2018-11-22T01:32:48.850Z,24.10
2018-11-22T01:35:35.760Z,24.20
2018-11-22T01:38:22.566Z,23.47
2018-11-22T01:41:09.505Z,20.00
2018-11-22T01:43:56.476Z,21.90
2018-11-22T01:46:44.140Z,19.70
2018-11-22T01:49:31.085Z,24.20
2018-11-22T01:52:18.204Z,20.67
2018-11-22T01:55:05.846Z,22.70
2018-11-22T01:57:52.760Z,19.87
2018-11-22T02:00:39.799Z,24.93
2018-11-22T02:03:26.599Z,21.20
2018-11-22T02:06:13.465Z,19.17
2018-11-22T02:09:00.214Z,18.80
2018-11-22T02:11:47.203Z,24.90
2018-11-22T02:14:35.260Z,19.80
2018-11-22T02:17:22.331Z,17.83
2018-11-22T02:19:49.698Z,26.90
2018-11-22T02:22:17.125Z,23.50
2018-11-22T02:25:05.959Z,22.20
2018-11-22T02:27:52.957Z,20.93
2018-11-22T02:30:39.753Z,21.07
2018-11-22T02:33:26.576Z,21.93
2018-11-22T02:35:54.025Z,17.17
2018-11-22T02:38:21.477Z,23.77
2018-11-22T02:40:51.493Z,22.40
2018-11-22T02:43:38.266Z,25.03
2018-11-22T02:46:25.173Z,24.43
2018-11-22T02:49:12.179Z,23.07
2018-11-22T02:51:59.137Z,29.53
2018-11-22T02:54:45.957Z,24.83
2018-11-22T02:57:13.403Z,19.47
2018-11-22T03:00:00.164Z,19.60
2018-11-22T03:02:47.100Z,25.47
2018-11-22T03:05:14.620Z,24.53
2018-11-22T03:08:01.500Z,24.67
2018-11-22T03:10:48.341Z,23.57
2018-11-22T03:13:35.219Z,21.93
2018-11-22T03:16:21.997Z,25.40
2018-11-22T03:19:08.791Z,22.17
2018-11-22T03:21:55.619Z,22.13
2018-11-22T03:24:42.714Z,26.00
2018-11-22T03:27:29.949Z,21.17
2018-11-22T03:30:18.455Z,26.17
2018-11-22T03:33:05.331Z,29.37
2018-11-22T03:35:52.269Z,21.80
2018-11-22T03:38:39.170Z,22.53
2018-11-22T03:41:25.980Z,27.37
2018-11-22T03:44:12.925Z,25.23
2018-11-22T03:46:59.893Z,25.10
2018-11-22T03:49:50.461Z,27.37
2018-11-22T03:52:34.590Z,24.80
2018-11-22T03:55:02.150Z,23.33
2018-11-22T03:57:49.411Z,22.10
2018-11-22T04:00:36.388Z,26.00
2018-11-22T04:03:23.376Z,28.70
2018-11-22T04:06:10.168Z,23.80
2018-11-22T04:08:57.057Z,29.93
2018-11-22T04:11:43.913Z,24.50
2018-11-22T04:14:30.804Z,23.50
2018-11-22T04:17:17.674Z,25.27
2018-11-22T04:19:45.169Z,25.90
2018-11-22T04:22:31.942Z,28.77
2018-11-22T04:24:59.285Z,22.03
2018-11-22T04:27:26.915Z,26.40
2018-11-22T04:29:54.259Z,24.77
2018-11-22T04:32:41.243Z,22.47
2018-11-22T04:35:30.882Z,26.60
2018-11-22T04:37:58.243Z,22.33
2018-11-22T04:40:45.037Z,28.87
2018-11-22T04:43:31.987Z,24.43
2018-11-22T04:46:19.145Z,28.07
2018-11-22T04:49:05.985Z,31.03
2018-11-22T04:51:52.808Z,21.93
2018-11-22T04:54:39.677Z,28.53
2018-11-22T04:57:07.050Z,29.77
2018-11-22T04:59:53.968Z,24.10
2018-11-22T05:02:40.949Z,21.10
2018-11-22T05:05:10.459Z,24.77
2018-11-22T05:07:57.297Z,23.43
2018-11-22T05:10:44.246Z,26.13
2018-11-22T05:13:31.316Z,25.00
2018-11-22T05:15:58.847Z,27.43
2018-11-22T05:18:45.755Z,26.47
2018-11-22T05:21:32.758Z,26.23
2018-11-22T05:24:20.681Z,28.00
2018-11-22T05:27:07.690Z,25.37
2018-11-22T05:29:54.649Z,25.00
2018-11-22T05:32:41.534Z,24.50
2018-11-22T05:35:29.562Z,27.83
2018-11-22T05:37:56.870Z,23.90
2018-11-22T05:40:43.772Z,25.70
2018-11-22T05:43:30.725Z,26.43
2018-11-22T05:45:58.062Z,28.57
2018-11-22T05:48:44.822Z,23.90
2018-11-22T05:51:12.377Z,27.20
2018-11-22T05:53:59.213Z,25.50
2018-11-22T05:56:45.974Z,26.83
2018-11-22T05:59:32.830Z,24.60
2018-11-22T06:02:19.829Z,24.37
2018-11-22T06:05:07.125Z,24.70
2018-11-22T06:07:54.344Z,22.87
2018-11-22T06:10:41.374Z,22.80
2018-11-22T06:13:08.713Z,22.17
2018-11-22T06:15:55.733Z,22.80
2018-11-22T06:18:42.773Z,30.90
2018-11-22T06:21:29.959Z,25.50
2018-11-22T06:24:17.085Z,30.73
2018-11-22T06:27:05.862Z,35.00
2018-11-22T06:29:55.804Z,30.13
2018-11-22T06:32:42.894Z,28.60
2018-11-22T06:35:10.401Z,30.60
2018-11-22T06:37:57.560Z,30.57
2018-11-22T06:40:44.430Z,30.27
2018-11-22T06:43:11.874Z,29.20
2018-11-22T06:45:58.680Z,30.57
2018-11-22T06:48:45.848Z,21.43
2018-11-22T06:51:32.802Z,28.23
2018-11-22T06:54:19.743Z,29.10
2018-11-22T06:56:47.256Z,32.20
2018-11-22T06:59:14.943Z,28.13
2018-11-22T07:02:01.838Z,28.47
2018-11-22T07:04:29.410Z,36.00
2018-11-22T07:07:16.255Z,31.93
2018-11-22T07:10:03.316Z,29.20
2018-11-22T07:12:50.290Z,32.00
2018-11-22T07:15:18.356Z,33.57
2018-11-22T07:18:05.180Z,27.37
2018-11-22T07:20:51.948Z,29.90
2018-11-22T07:23:38.917Z,28.10
2018-11-22T07:26:06.827Z,31.37
2018-11-22T07:28:53.745Z,33.50
2018-11-22T07:31:40.489Z,30.97
2018-11-22T07:34:27.583Z,27.60
2018-11-22T07:37:14.620Z,30.90
2018-11-22T07:39:42.059Z,29.47
2018-11-22T07:42:28.879Z,31.97
2018-11-22T07:45:17.164Z,29.27
2018-11-22T07:48:04.735Z,30.17
2018-11-22T07:50:51.543Z,34.90
2018-11-22T07:53:18.874Z,51.93
2018-11-22T07:55:46.125Z,35.70
2018-11-22T07:58:32.887Z,34.37
2018-11-22T08:01:00.190Z,22.47
2018-11-22T08:06:53.309Z,36.60
2018-11-22T08:09:20.719Z,32.93
2018-11-22T08:12:12.180Z,34.83
2018-11-22T08:14:54.174Z,31.13
2018-11-22T08:17:41.331Z,32.10
2018-11-22T08:20:28.345Z,25.43
2018-11-22T08:23:15.471Z,31.10
2018-11-22T08:26:02.194Z,25.60
2018-11-22T08:28:48.951Z,24.10
2018-11-22T08:31:16.260Z,25.70
2018-11-22T08:34:03.106Z,26.03
2018-11-22T08:36:49.944Z,26.00
2018-11-22T08:39:36.710Z,24.67
2018-11-22T08:42:23.652Z,24.30
2018-11-22T08:44:51.109Z,25.70
2018-11-22T08:47:38.058Z,25.53
2018-11-22T08:50:26.456Z,27.40
2018-11-22T08:53:13.155Z,28.17
2018-11-22T08:56:00.235Z,28.90
2018-11-22T08:58:47.102Z,27.33
2018-11-22T09:01:34.664Z,25.13
2018-11-22T09:07:08.439Z,28.97
2018-11-22T09:09:55.199Z,29.77
2018-11-22T09:12:42.587Z,27.60
2018-11-22T09:15:31.450Z,34.93
2018-11-22T09:21:04.384Z,24.23
2018-11-22T09:23:51.334Z,30.43
2018-11-22T09:26:31.613Z,30.03
2018-11-22T09:29:11.355Z,25.97
2018-11-22T09:31:50.925Z,28.43
2018-11-22T09:34:30.568Z,32.00
2018-11-22T09:37:10.995Z,29.50
2018-11-22T09:39:50.820Z,27.97
2018-11-22T09:42:31.285Z,27.27
2018-11-22T09:45:11.123Z,29.00
2018-11-22T09:47:51.487Z,29.87
2018-11-22T09:50:31.118Z,26.87
2018-11-22T09:53:11.163Z,31.47
2018-11-22T09:55:38.459Z,28.43
2018-11-22T09:58:06.304Z,27.30
2018-11-22T10:00:53.241Z,26.77
2018-11-22T10:03:39.958Z,30.47
2018-11-22T10:06:26.750Z,28.30
2018-11-22T10:09:13.561Z,28.20
2018-11-22T10:12:00.476Z,31.73
2018-11-22T10:14:47.231Z,24.33
2018-11-22T10:17:34.028Z,25.40
2018-11-22T10:20:22.167Z,33.00
2018-11-22T10:23:09.064Z,29.03
2018-11-22T10:25:55.866Z,32.13
2018-11-22T10:28:42.643Z,30.90
2018-11-22T10:31:29.880Z,32.43
2018-11-22T10:34:16.776Z,29.57
2018-11-22T10:37:03.627Z,31.27
2018-11-22T10:39:50.567Z,30.93
2018-11-22T10:42:37.729Z,31.20
2018-11-22T10:48:01.913Z,28.20
2018-11-22T10:50:33.081Z,35.47
2018-11-22T10:53:19.879Z,28.90
2018-11-22T10:56:06.630Z,30.30
2018-11-22T10:58:47.253Z,35.30
2018-11-22T11:01:53.482Z,29.23
2018-11-22T11:04:59.774Z,31.90
2018-11-22T11:08:06.134Z,33.60
2018-11-22T11:10:33.442Z,55.97
2018-11-22T11:13:00.765Z,38.97
2018-11-22T11:15:55.327Z,31.70
2018-11-22T11:18:24.065Z,28.73
2018-11-22T11:21:10.929Z,38.97
2018-11-22T11:23:57.787Z,31.47
2018-11-22T11:26:44.676Z,31.50
2018-11-22T11:29:31.535Z,29.07
2018-11-22T11:32:18.344Z,26.07
2018-11-22T11:35:07.106Z,27.43
2018-11-22T11:37:53.982Z,28.60
2018-11-22T11:44:03.188Z,31.10
2018-11-22T11:46:50.190Z,35.20
2018-11-22T11:49:36.979Z,37.57
2018-11-22T11:52:23.909Z,35.00
2018-11-22T11:55:11.413Z,29.37
2018-11-22T11:57:39.129Z,34.50
2018-11-22T12:03:20.315Z,33.33
2018-11-22T12:05:47.861Z,35.93
2018-11-22T12:08:15.178Z,29.17
2018-11-22T12:11:01.984Z,32.57
2018-11-22T12:13:49.392Z,34.13
2018-11-22T12:16:36.602Z,39.63
2018-11-22T12:19:23.860Z,32.93
2018-11-22T12:22:10.809Z,34.20
2018-11-22T12:24:57.643Z,34.50
2018-11-22T12:27:28.544Z,34.93
2018-11-22T12:29:56.357Z,30.60
2018-11-22T12:32:44.258Z,32.93
2018-11-22T12:35:29.413Z,35.70
2018-11-22T12:38:16.389Z,30.37
2018-11-22T12:40:43.749Z,33.03
2018-11-22T12:43:30.535Z,32.40
2018-11-22T12:46:17.489Z,35.27
2018-11-22T12:49:04.565Z,30.53
2018-11-22T12:51:51.850Z,31.33
2018-11-22T12:54:38.767Z,31.73
2018-11-22T12:57:26.206Z,32.67
2018-11-22T13:00:14.128Z,31.03
2018-11-22T13:03:00.988Z,41.20
2018-11-22T13:05:48.183Z,28.77
2018-11-22T13:08:35.192Z,27.63
2018-11-22T13:11:02.693Z,34.17
2018-11-22T13:13:49.496Z,29.47
2018-11-22T13:16:37.413Z,31.40
2018-11-22T13:19:05.005Z,32.67
2018-11-22T13:21:51.950Z,29.40
2018-11-22T13:24:39.114Z,28.27
2018-11-22T13:27:26.246Z,29.07
2018-11-22T13:30:32.969Z,29.17
2018-11-22T13:33:00.616Z,30.70
2018-11-22T13:35:47.566Z,33.17
2018-11-22T13:38:15.221Z,31.33
2018-11-22T13:41:02.073Z,28.57
2018-11-22T13:43:48.841Z,35.80
2018-11-22T13:46:35.710Z,40.13
2018-11-22T13:49:22.631Z,38.87
2018-11-22T13:52:09.574Z,31.03
2018-11-22T13:54:56.527Z,33.27
2018-11-22T13:57:23.915Z,30.27
2018-11-22T14:00:33.785Z,27.67
2018-11-22T14:03:20.574Z,33.77
2018-11-22T14:06:07.463Z,37.33
2018-11-22T14:08:54.288Z,27.80
2018-11-22T14:11:41.055Z,34.67
2018-11-22T14:14:27.937Z,30.73
2018-11-22T14:16:56.580Z,32.80
2018-11-22T14:19:42.962Z,31.53
2018-11-22T14:22:10.289Z,31.10
2018-11-22T14:24:57.165Z,33.43
2018-11-22T14:27:44.870Z,34.27
2018-11-22T14:30:13.743Z,38.37
2018-11-22T14:33:00.546Z,32.00
2018-11-22T14:35:47.452Z,31.97
2018-11-22T14:38:34.244Z,34.27
2018-11-22T14:41:21.221Z,30.73
2018-11-22T14:44:08.192Z,32.60
2018-11-22T14:46:35.900Z,34.10
2018-11-22T14:49:22.829Z,38.43
2018-11-22T14:51:51.421Z,36.10
2018-11-22T14:54:38.219Z,37.10
2018-11-22T14:57:25.134Z,33.47
2018-11-22T15:00:12.998Z,29.20
2018-11-22T15:02:59.745Z,40.90
2018-11-22T15:05:27.130Z,37.80
2018-11-22T15:08:13.905Z,35.47
2018-11-22T15:11:00.689Z,33.10
2018-11-22T15:13:47.500Z,32.90
2018-11-22T15:16:34.355Z,43.10
2018-11-22T15:19:21.188Z,33.33
2018-11-22T15:22:08.033Z,35.90
2018-11-22T15:24:54.996Z,37.33
2018-11-22T15:27:22.494Z,38.57
2018-11-22T15:30:10.950Z,35.83
2018-11-22T15:32:38.439Z,34.73
2018-11-22T15:35:26.768Z,33.67
2018-11-22T15:38:13.528Z,33.77
2018-11-22T15:41:00.397Z,34.00
2018-11-22T15:43:47.189Z,39.57
2018-11-22T15:46:14.483Z,35.50
2018-11-22T15:49:01.236Z,31.70
2018-11-22T15:51:48.017Z,38.33
2018-11-22T15:54:35.549Z,45.60
2018-11-22T15:57:22.342Z,33.17
2018-11-22T16:00:09.947Z,33.43
2018-11-22T16:02:37.566Z,33.33
2018-11-22T16:05:25.149Z,36.00
2018-11-22T16:07:52.527Z,32.87
2018-11-22T16:10:39.753Z,37.90
2018-11-22T16:13:26.481Z,36.50
2018-11-22T16:16:13.316Z,36.67
2018-11-22T16:18:40.774Z,40.77
2018-11-22T16:21:08.720Z,32.30
2018-11-22T16:23:36.024Z,32.07
2018-11-22T16:26:22.962Z,39.37
2018-11-22T16:29:09.683Z,33.73
2018-11-22T16:31:57.150Z,39.90
2018-11-22T16:34:43.901Z,39.67
2018-11-22T16:37:30.857Z,41.90
2018-11-22T16:40:19.279Z,38.37
2018-11-22T16:43:06.106Z,39.60
2018-11-22T16:45:35.067Z,44.03
2018-11-22T16:48:22.038Z,39.27
2018-11-22T16:51:09.076Z,41.67
2018-11-22T16:53:56.165Z,36.47
2018-11-22T16:56:42.938Z,39.80
2018-11-22T16:59:29.851Z,36.73
2018-11-22T17:02:17.372Z,39.83
2018-11-22T17:07:42.263Z,35.53
2018-11-22T17:10:30.052Z,46.83
2018-11-22T17:13:17.276Z,41.67
2018-11-22T17:16:05.108Z,42.73
2018-11-22T17:18:52.085Z,43.80
2018-11-22T17:21:31.768Z,41.83
2018-11-22T17:24:12.459Z,40.03
2018-11-22T17:26:52.682Z,39.40
2018-11-22T17:29:32.363Z,43.90
2018-11-22T17:32:11.781Z,43.63
2018-11-22T17:37:35.066Z,41.47
2018-11-22T17:40:02.589Z,40.20
2018-11-22T17:42:49.453Z,42.27
2018-11-22T17:45:39.394Z,43.53
2018-11-22T17:48:07.216Z,38.33
2018-11-22T17:50:54.364Z,39.10
2018-11-22T17:53:41.187Z,36.00
2018-11-22T17:56:08.741Z,36.17
2018-11-22T17:58:36.951Z,36.20
2018-11-22T18:01:24.002Z,43.63
2018-11-22T18:04:11.695Z,39.00
2018-11-22T18:06:59.432Z,40.50
2018-11-22T18:09:27.077Z,43.53
2018-11-22T18:12:13.950Z,41.30
2018-11-22T18:15:01.544Z,38.33
2018-11-22T18:17:49.004Z,39.13
2018-11-22T18:20:36.358Z,38.53
2018-11-22T18:23:23.624Z,39.93
2018-11-22T18:26:10.427Z,36.30
2018-11-22T18:28:37.835Z,37.47
2018-11-22T18:31:25.214Z,38.03
2018-11-22T18:33:53.593Z,34.40
2018-11-22T18:36:40.742Z,36.80
2018-11-22T18:39:27.545Z,36.50
2018-11-22T18:42:14.863Z,37.93
2018-11-22T18:44:42.273Z,40.43
2018-11-22T18:47:29.264Z,37.27
2018-11-22T18:50:17.739Z,37.90
2018-11-22T18:52:49.022Z,36.33
2018-11-22T18:55:20.353Z,37.73
2018-11-22T18:57:48.865Z,34.00
2018-11-22T19:00:28.110Z,37.77
2018-11-22T19:02:57.014Z,37.17
2018-11-22T19:05:25.020Z,32.37
2018-11-22T19:08:12.842Z,35.03
2018-11-22T19:10:41.402Z,34.67
2018-11-22T19:13:28.679Z,32.97
2018-11-22T19:16:15.715Z,33.67
2018-11-22T19:19:05.830Z,32.13
2018-11-22T19:21:59.482Z,34.30
2018-11-22T19:24:46.488Z,35.43
2018-11-22T19:27:14.852Z,32.63
2018-11-22T19:30:03.774Z,33.30
2018-11-22T19:32:33.286Z,35.17
2018-11-22T19:35:21.708Z,37.33
2018-11-22T19:37:49.516Z,30.87
2018-11-22T19:40:19.147Z,36.70
2018-11-22T19:42:48.125Z,33.43
2018-11-22T19:45:36.287Z,31.97
2018-11-22T19:48:06.164Z,31.13
2018-11-22T19:50:32.810Z,31.60
2018-11-22T19:53:01.347Z,32.07
2018-11-22T19:55:48.147Z,34.93
2018-11-22T19:58:35.052Z,35.77
2018-11-22T20:01:22.062Z,33.93
2018-11-22T20:04:08.897Z,37.67
2018-11-22T20:06:56.322Z,31.60
2018-11-22T20:09:43.614Z,35.70
2018-11-22T20:12:30.881Z,32.40
2018-11-22T20:18:09.694Z,32.63
2018-11-22T20:20:37.708Z,27.73
2018-11-22T20:23:24.498Z,30.87
2018-11-22T20:26:11.995Z,34.23
2018-11-22T20:28:58.934Z,34.97
2018-11-22T20:31:46.337Z,36.33
2018-11-22T20:34:20.471Z,41.73
2018-11-22T20:37:07.700Z,45.03
2018-11-22T20:39:54.721Z,36.37
2018-11-22T20:42:42.310Z,37.60
2018-11-22T20:45:17.267Z,42.10
2018-11-22T20:48:07.831Z,37.93
2018-11-22T20:50:54.553Z,38.77
2018-11-22T20:53:41.447Z,36.60
2018-11-22T20:56:28.999Z,33.30
2018-11-22T20:59:16.008Z,35.47
2018-11-22T21:02:03.052Z,45.80
2018-11-22T21:04:50.081Z,41.20
2018-11-22T21:07:37.071Z,35.70
2018-11-22T21:10:43.355Z,38.50
2018-11-22T21:13:10.894Z,37.93
2018-11-22T21:15:38.652Z,37.47
2018-11-22T21:18:08.128Z,42.90
2018-11-22T21:23:26.594Z,38.47
2018-11-22T21:25:54.781Z,40.03
2018-11-22T21:28:22.806Z,38.73
2018-11-22T21:31:09.825Z,44.47
2018-11-22T21:33:37.704Z,39.97
2018-11-22T21:36:24.818Z,41.90
2018-11-22T21:38:52.551Z,41.97
2018-11-22T21:41:20.028Z,44.77
2018-11-22T21:43:47.685Z,41.47
2018-11-22T21:46:30.238Z,38.43
2018-11-22T21:49:17.364Z,52.50
2018-11-22T21:52:04.712Z,49.10
2018-11-22T21:54:32.318Z,47.17
2018-11-22T21:57:19.310Z,47.07
2018-11-22T22:00:08.617Z,50.03
2018-11-22T22:02:57.733Z,49.43
2018-11-22T22:05:45.032Z,49.13
2018-11-22T22:08:12.675Z,43.10
2018-11-22T22:10:59.593Z,51.93
2018-11-22T22:13:46.522Z,47.00
2018-11-22T22:16:33.496Z,46.80
2018-11-22T22:19:20.434Z,43.63
2018-11-22T22:22:07.424Z,47.93
2018-11-22T22:24:34.951Z,46.90
2018-11-22T22:27:21.812Z,50.47
2018-11-22T22:29:49.294Z,44.97
2018-11-22T22:32:36.293Z,37.63
2018-11-22T22:35:24.083Z,41.83
2018-11-22T22:38:11.172Z,43.10
2018-11-22T22:40:57.983Z,49.57
2018-11-22T22:43:44.978Z,43.90
2018-11-22T22:46:12.504Z,39.20
2018-11-22T22:48:59.518Z,41.47
2018-11-22T22:51:46.742Z,42.83
2018-11-22T22:54:14.145Z,47.97
2018-11-22T22:57:01.213Z,40.03
2018-11-22T22:59:48.260Z,47.07
2018-11-22T23:02:35.071Z,42.70
2018-11-22T23:05:22.614Z,44.20
2018-11-22T23:08:09.520Z,42.90
2018-11-22T23:10:59.466Z,38.93
2018-11-22T23:13:47.063Z,43.63
2018-11-22T23:16:33.839Z,43.90
2018-11-22T23:19:01.288Z,38.00
2018-11-22T23:21:29.266Z,33.90
2018-11-22T23:24:16.133Z,37.90
2018-11-22T23:27:03.061Z,37.40
2018-11-22T23:29:50.139Z,37.53
2018-11-22T23:32:17.482Z,37.57
2018-11-22T23:35:04.659Z,37.90
2018-11-22T23:37:32.121Z,37.23
2018-11-22T23:40:00.036Z,37.10
2018-11-22T23:42:46.909Z,30.77
2018-11-22T23:45:33.999Z,36.70
2018-11-22T23:48:01.501Z,35.83
2018-11-22T23:50:48.413Z,35.30
2018-11-22T23:53:15.841Z,34.20
2018-11-22T23:55:43.538Z,35.40
2018-11-22T23:58:11.379Z,35.60
